createdAt,value
2022-09-20T00:01:48.658Z,1.30
2022-09-20T00:06:40.297Z,1.30
2022-09-20T00:11:34.129Z,1.40
2022-09-20T00:16:29.154Z,1.67
2022-09-20T00:21:25.847Z,1.42
2022-09-20T00:26:18.737Z,1.30
2022-09-20T00:31:12.062Z,1.17
2022-09-20T00:36:03.868Z,1.00
2022-09-20T00:40:55.441Z,1.17
2022-09-20T00:45:49.749Z,1.20
2022-09-20T00:50:57.078Z,1.30
2022-09-20T00:56:04.489Z,1.10
2022-09-20T01:00:58.182Z,1.17
2022-09-20T01:05:53.119Z,1.40
2022-09-20T01:10:45.015Z,1.33
2022-09-20T01:15:38.958Z,1.50
2022-09-20T01:20:33.447Z,1.35
2022-09-20T01:25:53.216Z,1.83
2022-09-20T01:31:02.177Z,4.50
2022-09-20T01:35:57.368Z,2.63
2022-09-20T01:41:09.134Z,2.03
2022-09-20T01:46:30.430Z,2.45
2022-09-20T01:51:43.246Z,2.13
2022-09-20T01:56:53.234Z,2.95
2022-09-20T02:01:53.734Z,2.30
2022-09-20T02:07:04.040Z,1.83
2022-09-20T02:12:10.922Z,2.40
2022-09-20T02:17:23.249Z,2.20
2022-09-20T02:22:56.997Z,1.58
2022-09-20T02:28:00.838Z,1.50
2022-09-20T02:32:58.289Z,1.60
2022-09-20T02:38:08.513Z,1.20
2022-09-20T02:43:27.779Z,1.17
2022-09-20T02:48:27.674Z,1.15
2022-09-20T02:53:45.043Z,1.50
2022-09-20T02:59:04.333Z,1.45
2022-09-20T03:04:19.042Z,1.02
2022-09-20T03:09:29.620Z,1.08
2022-09-20T03:14:28.325Z,1.27
2022-09-20T03:19:22.867Z,1.27
2022-09-20T03:24:39.349Z,1.42
2022-09-20T03:30:10.204Z,1.48
2022-09-20T03:35:21.445Z,1.50
2022-09-20T03:40:31.957Z,1.83
2022-09-20T03:45:51.103Z,1.75
2022-09-20T03:50:48.077Z,1.15
2022-09-20T03:55:51.599Z,1.35
2022-09-20T04:01:34.390Z,1.67
2022-09-20T04:07:00.105Z,1.38
2022-09-20T04:12:33.459Z,1.70
2022-09-20T04:17:52.580Z,1.55
2022-09-20T04:22:46.672Z,1.65
2022-09-20T04:28:05.070Z,1.88
2022-09-20T04:33:05.884Z,1.20
2022-09-20T04:37:59.185Z,1.30
2022-09-20T04:43:17.629Z,1.80
2022-09-20T04:48:31.073Z,1.70
2022-09-20T04:53:44.128Z,2.05
2022-09-20T04:58:47.073Z,1.98
2022-09-20T05:04:09.905Z,3.50
2022-09-20T05:09:23.231Z,2.88
2022-09-20T05:14:36.024Z,2.78
2022-09-20T05:19:43.193Z,3.00
2022-09-20T05:24:34.762Z,3.53
2022-09-20T05:29:47.866Z,2.78
2022-09-20T05:34:51.193Z,3.05
2022-09-20T05:40:13.313Z,2.92
2022-09-20T05:45:18.231Z,3.58
2022-09-20T05:50:29.919Z,3.63
2022-09-20T05:55:48.918Z,3.72
2022-09-20T06:01:04.882Z,3.63
2022-09-20T06:06:13.186Z,3.90
2022-09-20T06:11:27.361Z,3.63
2022-09-20T06:16:37.116Z,4.20
2022-09-20T06:21:47.058Z,3.67
2022-09-20T06:26:40.927Z,3.55
2022-09-20T06:31:33.024Z,3.88
2022-09-20T06:36:50.372Z,4.05
2022-09-20T06:41:42.792Z,4.10
2022-09-20T06:46:36.276Z,4.57
2022-09-20T06:51:33.836Z,3.90
2022-09-20T06:56:28.173Z,4.93
2022-09-20T07:01:29.791Z,3.65
2022-09-20T07:06:22.028Z,3.40
2022-09-20T07:11:16.463Z,3.28
2022-09-20T07:16:10.902Z,3.20
2022-09-20T07:21:03.103Z,3.15
2022-09-20T07:25:54.854Z,2.47
2022-09-20T07:30:50.101Z,2.28
2022-09-20T07:35:41.755Z,3.33
2022-09-20T07:40:33.413Z,2.40
2022-09-20T07:45:25.340Z,2.42
2022-09-20T07:50:17.088Z,2.40
2022-09-20T07:55:09.232Z,2.90
2022-09-20T08:00:00.931Z,2.65
2022-09-20T08:04:52.577Z,2.25
2022-09-20T08:09:44.373Z,2.78
2022-09-20T08:14:36.165Z,2.67
2022-09-20T08:19:27.796Z,2.42
2022-09-20T08:24:19.720Z,1.85
2022-09-20T08:29:12.249Z,1.83
2022-09-20T08:34:09.198Z,1.83
2022-09-20T08:44:25.721Z,2.42
2022-09-20T08:49:26.207Z,2.28
2022-09-20T08:54:18.148Z,2.03
2022-09-20T08:59:16.076Z,1.75
2022-09-20T09:09:07.860Z,1.73
2022-09-20T09:14:31.728Z,1.40
2022-09-20T09:19:34.196Z,0.93
2022-09-20T09:24:26.370Z,1.42
2022-09-20T09:29:22.970Z,1.30
2022-09-20T09:34:25.415Z,1.48
2022-09-20T09:39:27.890Z,1.38
2022-09-20T09:44:25.700Z,1.70
2022-09-20T09:54:19.838Z,1.65
2022-09-20T09:59:26.469Z,1.67
2022-09-20T10:04:28.649Z,2.00
2022-09-20T10:09:50.187Z,1.83
2022-09-20T10:15:04.553Z,1.92
2022-09-20T10:20:10.431Z,2.10
2022-09-20T10:25:13.365Z,1.63
2022-09-20T10:30:22.353Z,2.58
2022-09-20T10:35:23.929Z,2.70
2022-09-20T10:40:15.708Z,2.33
2022-09-20T10:46:14.059Z,2.63
2022-09-20T10:51:00.405Z,1.30
2022-09-20T10:56:10.655Z,1.63
2022-09-20T11:01:23.332Z,1.80
2022-09-20T11:06:32.997Z,1.88
2022-09-20T11:11:34.808Z,1.48
2022-09-20T11:16:36.668Z,1.67
2022-09-20T11:21:38.446Z,1.20
2022-09-20T11:26:38.656Z,0.88
2022-09-20T11:31:36.423Z,1.25
2022-09-20T11:36:36.913Z,0.65
2022-09-20T11:41:30.611Z,0.88
2022-09-20T11:46:27.958Z,0.70
2022-09-20T11:51:31.781Z,0.98
2022-09-20T11:56:30.961Z,1.02
2022-09-20T12:01:33.432Z,0.80
2022-09-20T12:06:38.561Z,0.80
2022-09-20T12:11:38.730Z,0.93
2022-09-20T12:16:43.436Z,1.00
2022-09-20T12:21:59.852Z,0.60
2022-09-20T12:26:56.304Z,0.57
2022-09-20T12:31:50.010Z,0.50
2022-09-20T12:37:05.669Z,0.50
2022-09-20T12:42:12.314Z,0.65
2022-09-20T12:47:25.615Z,0.60
2022-09-20T12:52:58.541Z,0.50
2022-09-20T12:57:54.592Z,0.47
2022-09-20T13:02:52.934Z,0.50
2022-09-20T13:07:54.045Z,0.50
2022-09-20T13:12:49.491Z,0.50
2022-09-20T13:17:46.280Z,0.50
2022-09-20T13:22:45.419Z,0.60
2022-09-20T13:27:51.216Z,0.70
2022-09-20T13:32:42.906Z,0.60
2022-09-20T13:37:36.457Z,0.60
2022-09-20T13:42:30.140Z,0.63
2022-09-20T13:47:32.502Z,0.50
2022-09-20T13:52:27.545Z,0.68
2022-09-20T13:57:26.661Z,0.90
2022-09-20T14:02:29.825Z,0.70
2022-09-20T14:07:25.917Z,0.65
2022-09-20T14:12:18.644Z,0.70
2022-09-20T14:17:15.680Z,0.73
2022-09-20T14:22:08.508Z,0.70
2022-09-20T14:27:19.360Z,0.50
2022-09-20T14:32:17.129Z,0.60
2022-09-20T14:37:32.870Z,1.00
2022-09-20T14:42:33.814Z,0.70
2022-09-20T14:48:11.991Z,0.60
2022-09-20T14:53:12.507Z,0.70
2022-09-20T14:58:13.558Z,0.65
2022-09-20T15:03:08.469Z,0.80
2022-09-20T15:08:00.999Z,0.70
2022-09-20T15:12:52.755Z,0.80
2022-09-20T15:17:45.997Z,0.60
2022-09-20T15:22:38.695Z,0.55
2022-09-20T15:27:30.309Z,0.50
2022-09-20T15:32:23.135Z,0.63
2022-09-20T15:37:14.749Z,0.80
2022-09-20T15:42:07.021Z,0.70
2022-09-20T15:46:58.826Z,0.80
2022-09-20T15:51:50.589Z,0.70
2022-09-20T15:56:42.619Z,0.80
2022-09-20T16:01:39.884Z,0.93
2022-09-20T16:06:32.826Z,0.63
2022-09-20T16:11:24.910Z,0.68
2022-09-20T16:16:17.832Z,0.73
2022-09-20T16:21:12.114Z,0.63
2022-09-20T16:26:03.870Z,0.60
2022-09-20T16:30:59.757Z,0.60
2022-09-20T16:35:51.486Z,0.60
2022-09-20T16:40:43.159Z,0.60
2022-09-20T16:45:35.719Z,0.60
2022-09-20T16:50:27.388Z,0.70
2022-09-20T16:55:20.697Z,0.60
2022-09-20T17:00:13.005Z,0.73
2022-09-20T17:05:05.401Z,0.98
2022-09-20T17:10:01.292Z,0.93
2022-09-20T17:14:52.936Z,0.90
2022-09-20T17:19:44.602Z,0.73
2022-09-20T17:24:36.238Z,0.68
2022-09-20T17:29:27.918Z,0.70
2022-09-20T17:34:21.905Z,0.77
2022-09-20T17:39:15.441Z,0.75
2022-09-20T17:44:11.869Z,0.68
2022-09-20T17:49:06.949Z,1.17
2022-09-20T17:53:59.075Z,0.75
2022-09-20T17:58:50.749Z,1.10
2022-09-20T18:03:46.113Z,1.00
2022-09-20T18:08:38.279Z,1.17
2022-09-20T18:13:30.899Z,1.20
2022-09-20T18:18:22.756Z,1.05
2022-09-20T18:23:14.715Z,1.15
2022-09-20T18:28:06.336Z,1.30
2022-09-20T18:32:57.941Z,1.55
2022-09-20T18:37:49.805Z,1.48
2022-09-20T18:42:41.527Z,2.30
2022-09-20T18:47:33.269Z,3.20
2022-09-20T18:52:24.931Z,3.50
2022-09-20T18:57:16.853Z,3.00
2022-09-20T19:02:31.374Z,2.45
2022-09-20T19:07:43.673Z,1.70
2022-09-20T19:12:41.943Z,1.10
2022-09-20T19:18:14.967Z,1.08
2022-09-20T19:23:50.292Z,0.90
2022-09-20T19:28:42.349Z,0.85
2022-09-20T19:33:34.329Z,1.00
2022-09-20T19:38:48.952Z,0.90
2022-09-20T19:44:04.385Z,1.17
2022-09-20T19:49:08.036Z,0.90
2022-09-20T19:53:59.808Z,1.20
2022-09-20T19:58:53.368Z,1.77
2022-09-20T20:03:47.408Z,1.45
2022-09-20T20:08:50.726Z,1.67
2022-09-20T20:14:03.912Z,2.22
2022-09-20T20:19:06.761Z,1.50
2022-09-20T20:24:23.744Z,2.47
2022-09-20T20:29:15.421Z,6.05
2022-09-20T20:34:08.818Z,3.22
2022-09-20T20:39:02.632Z,1.92
2022-09-20T20:43:57.351Z,1.75
2022-09-20T20:48:49.605Z,1.48
2022-09-20T20:53:47.698Z,1.20
2022-09-20T20:58:41.240Z,1.23
2022-09-20T21:03:33.636Z,0.90
2022-09-20T21:08:31.000Z,1.10
2022-09-20T21:13:22.740Z,1.30
2022-09-20T21:18:14.714Z,1.50
2022-09-20T21:23:06.412Z,1.42
2022-09-20T21:27:59.141Z,1.30
2022-09-20T21:32:53.785Z,1.25
2022-09-20T21:37:45.449Z,1.70
2022-09-20T21:42:37.068Z,2.03
2022-09-20T21:47:29.032Z,1.77
2022-09-20T21:52:20.794Z,1.70
2022-09-20T21:57:13.722Z,2.00
2022-09-20T22:02:05.556Z,2.30
2022-09-20T22:06:57.190Z,2.40
2022-09-20T22:11:49.095Z,3.78
2022-09-20T22:16:42.749Z,3.17
2022-09-20T22:21:37.305Z,3.20
2022-09-20T22:26:31.894Z,3.90
2022-09-20T22:31:26.116Z,3.65
2022-09-20T22:36:23.248Z,3.13
2022-09-20T22:41:16.634Z,3.67
2022-09-20T22:46:10.910Z,4.25
2022-09-20T22:51:11.175Z,4.60
2022-09-20T22:56:02.831Z,4.38
2022-09-20T23:00:54.483Z,4.78
2022-09-20T23:05:46.293Z,3.50
2022-09-20T23:10:37.869Z,4.32
2022-09-20T23:15:29.427Z,5.07
2022-09-20T23:20:21.199Z,5.68
2022-09-20T23:25:12.813Z,5.07
2022-09-20T23:30:05.313Z,5.35
2022-09-20T23:34:57.219Z,4.32
2022-09-20T23:39:48.830Z,4.40
2022-09-20T23:44:40.569Z,3.83
2022-09-20T23:49:32.245Z,4.30
2022-09-20T23:54:24.509Z,3.60
2022-09-20T23:59:16.208Z,4.43
